Time;durP1;ratioP1;P1;durP2;ratioP2;P2;SDS_P1;SDS_P2;PMS_P1;PMS_P2;Temp;Humidity;BMP_temperature;BMP_pressure;BME280_temperature;BME280_humidity;BME280_pressure;Samples;Min_cycle;Max_cycle;Signal;HPM_P1;HPM_P2
2022/11/04 00:02:02;;;;;;;0.88;0.52;;;11.50;91.10;;;14.63;52.81;96643.38;4925757;29;20350;-51
2022/11/04 00:04:31;;;;;;;1.30;0.93;;;11.60;90.30;;;14.64;52.62;96635.16;4926846;29;20048;-47
2022/11/04 00:06:59;;;;;;;1.10;0.70;;;11.60;90.10;;;14.62;52.70;96636.38;4926091;29;20056;-48
2022/11/04 00:09:29;;;;;;;1.27;0.85;;;11.60;90.10;;;14.61;52.63;96643.59;4925973;29;20070;-49
2022/11/04 00:14:44;;;;;;;1.17;0.90;;;11.50;89.90;;;14.63;52.73;96630.00;4926548;29;20040;-50
2022/11/04 00:17:18;;;;;;;1.23;0.90;;;11.50;90.40;;;14.64;52.61;96629.78;4927025;29;20058;-50
2022/11/04 00:33:56;;;;;;;1.10;0.90;;;11.60;89.60;;;14.66;52.46;96672.44;4888667;29;20059;-51
2022/11/04 00:36:25;;;;;;;1.95;1.00;;;11.60;89.50;;;14.54;52.64;96669.56;4889004;29;20064;-50
2022/11/04 00:38:53;;;;;;;1.58;1.00;;;11.60;89.10;;;14.51;52.67;96678.00;4902955;29;20075;-49
2022/11/04 00:41:24;;;;;;;1.50;0.82;;;11.50;89.70;;;14.60;52.75;96676.78;4889032;29;20055;-52
2022/11/04 00:43:59;;;;;;;2.33;0.82;;;11.60;90.00;;;14.65;52.35;96673.47;4888606;29;20235;-52
2022/11/04 00:46:31;;;;;;;1.55;1.20;;;11.60;89.40;;;14.70;52.30;96676.34;4888980;29;20045;-50
2022/11/04 00:49:00;;;;;;;1.63;0.85;;;11.60;88.20;;;14.60;52.36;96679.47;4889312;29;20059;-50
2022/11/04 00:51:28;;;;;;;1.27;0.90;;;11.60;89.20;;;14.62;52.60;96682.75;4903184;29;20053;-53
2022/11/04 00:53:57;;;;;;;1.30;0.90;;;11.60;89.00;;;14.48;53.08;96681.09;4888814;29;20285;-52
2022/11/04 00:56:25;;;;;;;1.35;0.95;;;11.40;90.40;;;14.48;53.12;96683.75;4889300;29;20071;-52
2022/11/04 00:58:53;;;;;;;1.95;1.13;;;11.40;91.40;;;14.53;53.29;96681.28;4888827;29;20271;-51
2022/11/04 01:01:21;;;;;;;0.98;0.88;;;11.50;91.80;;;14.40;54.26;96684.81;4888442;29;20270;-53
2022/11/04 01:03:52;;;;;;;2.15;1.08;;;11.40;93.20;;;14.40;54.50;96681.31;4888314;29;20053;-51
2022/11/04 01:06:23;;;;;;;1.10;0.75;;;11.40;95.30;;;14.32;54.79;96677.81;4888303;29;20049;-49
2022/11/04 01:09:00;;;;;;;1.40;1.25;;;11.20;96.20;;;14.30;55.29;96684.41;4889109;29;20059;-49
2022/11/04 01:11:30;;;;;;;1.25;0.90;;;11.30;97.40;;;14.36;55.03;96679.06;4902491;29;20053;-50
2022/11/04 01:13:58;;;;;;;1.23;0.88;;;11.30;97.30;;;14.35;55.02;96685.44;4888128;29;20049;-53
2022/11/04 01:16:27;;;;;;;1.20;0.70;;;11.30;97.00;;;14.13;55.81;96676.84;4902606;29;20045;-50
2022/11/04 01:18:57;;;;;;;1.10;0.80;;;11.20;97.60;;;14.10;56.00;96692.47;4888505;29;20357;-51
2022/11/04 01:21:27;;;;;;;1.67;1.00;;;11.10;98.20;;;14.02;56.09;96685.47;4916864;29;20047;-51
2022/11/04 01:23:55;;;;;;;1.80;1.10;;;11.00;98.70;;;14.06;55.90;96670.66;4925580;29;20363;-52
2022/11/04 01:26:25;;;;;;;1.87;0.90;;;11.00;99.00;;;14.10;55.71;96666.53;4924928;29;20056;-48
2022/11/04 01:28:56;;;;;;;1.35;0.90;;;11.00;98.60;;;14.12;55.64;96664.47;4925877;29;20052;-50
2022/11/04 01:31:28;;;;;;;1.47;0.90;;;11.00;98.60;;;14.07;55.72;96669.59;4926059;29;20060;-51
2022/11/04 01:33:58;;;;;;;0.60;0.60;;;11.00;98.80;;;14.10;55.61;96666.53;4925412;29;20058;-52
2022/11/04 01:36:27;;;;;;;1.27;0.90;;;11.00;98.70;;;14.00;55.54;96682.19;4925828;29;20050;-49
2022/11/04 01:38:56;;;;;;;1.63;0.90;;;10.90;97.70;;;14.03;55.44;96684.44;4925688;29;20055;-52
2022/11/04 01:41:28;;;;;;;1.42;1.02;;;11.00;98.50;;;14.05;55.43;96674.34;4925252;29;20063;-52
2022/11/04 01:44:01;;;;;;;1.20;0.68;;;11.00;98.30;;;14.08;55.30;96684.66;4924006;29;20242;-49
2022/11/04 01:46:45;;;;;;;3.65;0.90;;;11.00;97.40;;;14.07;55.16;96683.00;4925801;29;20245;-52
2022/11/04 01:49:25;;;;;;;2.00;0.80;;;11.00;97.00;;;13.99;55.04;96677.84;4924596;29;20246;-51
2022/11/04 01:52:04;;;;;;;2.00;1.63;;;10.90;96.50;;;14.02;54.94;96684.66;4925544;29;20062;-53
2022/11/04 01:54:35;;;;;;;1.43;1.03;;;10.90;97.10;;;13.95;54.91;96682.78;4922655;29;20060;-48
2022/11/04 01:57:08;;;;;;;1.58;1.05;;;10.90;96.50;;;13.98;54.84;96677.03;4927133;29;20050;-50
2022/11/04 01:59:40;;;;;;;0.67;0.63;;;10.90;96.30;;;14.00;54.69;96674.16;4928567;29;20339;-50
2022/11/04 02:02:09;;;;;;;0.82;0.63;;;10.90;95.80;;;13.96;54.49;96672.94;4928360;29;20334;-54
2022/11/04 02:04:38;;;;;;;3.50;1.03;;;10.90;94.30;;;13.94;54.66;96666.97;4928896;29;20052;-50
2022/11/04 02:07:09;;;;;;;1.33;0.90;;;10.80;94.30;;;13.90;54.25;96677.25;4929265;29;20246;-51
2022/11/04 02:09:39;;;;;;;1.85;1.00;;;10.80;93.40;;;13.88;54.20;96676.63;4929293;29;20246;-52
2022/11/04 02:14:57;;;;;;;0.98;0.70;;;10.80;93.70;;;13.92;53.58;96658.28;4928882;29;20044;-49
2022/11/04 02:18:06;;;;;;;2.15;1.10;;;10.80;93.30;;;13.87;53.61;96656.25;4928927;29;20055;-52
2022/11/04 02:20:57;;;;;;;3.23;0.97;;;10.80;92.00;;;13.81;53.60;96662.44;4921615;29;20056;-48
2022/11/04 02:24:08;;;;;;;1.23;0.55;;;10.80;91.50;;;13.85;53.63;96657.50;4910166;29;20206;-48
2022/11/04 02:27:12;;;;;;;1.63;0.95;;;10.80;91.70;;;13.85;53.43;96669.00;4908877;29;20067;-49
2022/11/04 02:30:13;;;;;;;2.05;0.85;;;10.80;91.40;;;13.78;53.47;96666.34;4894062;29;20323;-49
2022/11/04 02:33:05;;;;;;;0.77;0.77;;;10.70;91.00;;;13.65;53.54;96673.50;4893637;29;20049;-50
2022/11/04 02:35:49;;;;;;;3.30;1.00;;;10.70;91.90;;;13.76;53.46;96688.97;4893279;29;20063;-51
2022/11/04 02:38:53;;;;;;;2.55;0.80;;;10.70;91.90;;;13.71;53.44;96686.91;4910055;29;20065;-50
2022/11/04 02:41:55;;;;;;;1.45;1.10;;;10.70;91.00;;;13.74;53.27;96665.09;4892556;29;20048;-49
2022/11/04 02:44:30;;;;;;;2.70;1.07;;;10.70;91.00;;;13.75;53.21;96661.41;4893443;29;20049;-51
2022/11/04 02:47:20;;;;;;;2.77;0.80;;;10.60;90.90;;;13.72;53.04;96658.31;4910006;29;20074;-51
2022/11/04 02:50:21;;;;;;;1.17;1.00;;;10.60;90.80;;;13.68;53.02;96665.91;4893520;29;20053;-49
2022/11/04 02:52:57;;;;;;;2.00;1.00;;;10.60;90.30;;;13.73;53.06;96676.81;4910190;29;20064;-50
2022/11/04 02:55:51;;;;;;;2.00;1.00;;;10.60;90.80;;;13.74;53.07;96674.97;4892595;29;20052;-50
2022/11/04 02:58:33;;;;;;;1.50;1.10;;;10.60;90.30;;;13.74;52.58;96677.66;4909644;29;20056;-51
2022/11/04 03:01:03;;;;;;;2.07;0.77;;;10.60;89.40;;;13.73;52.62;96676.00;4893585;29;20351;-48
2022/11/04 03:03:40;;;;;;;3.60;1.57;;;10.60;89.30;;;13.70;52.66;96674.56;4893064;29;20066;-48
2022/11/04 03:06:12;;;;;;;2.13;0.87;;;10.60;89.90;;;13.59;52.64;96673.31;4893233;29;20086;-51
2022/11/04 03:08:49;;;;;;;1.33;0.90;;;10.60;89.30;;;13.59;52.72;96683.22;4892628;29;20064;-51
2022/11/04 03:11:24;;;;;;;2.00;1.40;;;10.60;89.10;;;13.64;52.56;96687.94;4893244;29;20250;-53
2022/11/04 03:14:05;;;;;;;1.87;1.03;;;10.60;89.20;;;13.64;52.49;96677.22;4892690;29;20064;-52
2022/11/04 03:16:51;;;;;;;1.87;1.17;;;10.60;89.10;;;13.57;52.56;96653.13;4909257;29;20041;-52
2022/11/04 03:19:28;;;;;;;3.17;0.80;;;10.50;88.70;;;13.60;52.52;96668.78;4892936;29;20060;-53
2022/11/04 03:22:25;;;;;;;4.03;0.93;;;10.50;88.80;;;13.39;52.65;96683.97;4924109;29;20232;-49
2022/11/04 03:24:55;;;;;;;3.10;1.13;;;10.40;88.10;;;13.56;52.42;96675.56;4926774;29;20059;-49
2022/11/04 03:28:03;;;;;;;2.90;0.70;;;10.40;89.40;;;13.52;52.46;96672.47;4927926;29;20059;-52
2022/11/04 03:30:46;;;;;;;3.03;1.00;;;10.40;89.30;;;13.52;52.47;96685.03;4926916;29;20327;-50
2022/11/04 03:33:37;;;;;;;1.50;0.98;;;10.40;88.70;;;13.56;52.50;96686.28;4926927;29;20258;-49
2022/11/04 03:36:07;;;;;;;3.57;0.97;;;10.40;88.30;;;13.50;52.26;96689.75;4926354;29;20055;-52
2022/11/04 03:38:37;;;;;;;2.20;1.10;;;10.40;89.10;;;13.40;52.56;96698.19;4927272;29;20074;-48
2022/11/04 03:41:16;;;;;;;2.13;1.23;;;10.30;89.20;;;13.44;52.20;96703.94;4926669;29;20052;-51
2022/11/04 03:43:44;;;;;;;3.70;1.60;;;10.30;88.90;;;13.44;52.34;96701.28;4926992;29;20055;-49
2022/11/04 03:46:13;;;;;;;2.73;1.00;;;10.30;89.30;;;13.45;52.37;96703.72;4927659;29;20063;-47
2022/11/04 03:48:44;;;;;;;2.40;1.07;;;10.30;89.20;;;13.45;52.19;96701.03;4927100;29;20078;-51
2022/11/04 03:51:12;;;;;;;1.60;0.80;;;10.30;89.10;;;13.46;52.29;96721.44;4926668;29;20058;-52
2022/11/04 03:53:41;;;;;;;3.03;1.40;;;10.30;89.30;;;13.44;52.36;96720.00;4927009;29;20048;-51
2022/11/04 03:56:52;;;;;;;2.13;0.80;;;10.30;89.30;;;13.43;52.31;96727.16;4927328;29;20048;-51
2022/11/04 03:59:32;;;;;;;1.10;0.70;;;10.30;89.10;;;13.47;52.18;96736.41;4927469;29;20245;-51
2022/11/04 04:02:22;;;;;;;1.50;0.90;;;10.30;89.50;;;13.44;52.31;96728.81;4927284;29;20066;-51
2022/11/04 04:05:02;;;;;;;4.03;1.57;;;10.30;88.90;;;13.49;52.01;96714.84;4925283;29;20066;-50
2022/11/04 04:07:40;;;;;;;2.47;1.10;;;10.30;88.90;;;13.53;52.16;96716.06;4925727;29;20059;-52
2022/11/04 04:10:40;;;;;;;2.23;1.10;;;10.30;89.00;;;13.51;52.17;96727.00;4926133;29;20052;-52
2022/11/04 04:13:49;;;;;;;2.60;0.90;;;10.30;88.80;;;13.48;52.13;96732.75;4926415;29;20058;-50
2022/11/04 04:16:42;;;;;;;1.08;0.70;;;10.30;88.90;;;13.51;51.89;96724.31;4927054;29;20282;-51
2022/11/04 04:19:20;;;;;;;2.47;0.80;;;10.30;88.30;;;13.52;52.04;96720.59;4910235;29;20053;-53
2022/11/04 04:22:00;;;;;;;3.33;1.23;;;10.30;88.80;;;13.50;51.90;96714.66;4911910;29;20040;-52
2022/11/04 04:27:31;;;;;;;1.70;0.93;;;10.30;88.70;;;13.43;51.86;96715.66;4894236;29;20066;-50
2022/11/04 04:30:10;;;;;;;1.23;0.90;;;10.20;88.60;;;13.41;51.95;96720.38;4908285;29;20060;-52
2022/11/04 04:32:54;;;;;;;14.17;5.33;;;10.30;88.80;;;13.36;51.96;96719.13;4891915;29;20052;-52
2022/11/04 04:35:41;;;;;;;16.80;7.70;;;10.20;88.90;;;13.33;51.97;96716.84;4891376;29;20053;-51
2022/11/04 04:47:21;;;;;;;5.93;1.83;;;10.00;90.20;;;13.17;52.68;96725.22;4894496;29;20360;-48
2022/11/04 04:49:57;;;;;;;2.13;1.27;;;9.90;90.60;;;13.13;52.54;96723.97;4907695;29;20239;-50
2022/11/04 04:52:54;;;;;;;2.27;1.00;;;9.90;90.80;;;13.09;52.49;96725.41;4907375;29;20056;-51
2022/11/04 04:55:22;;;;;;;1.70;1.00;;;9.90;90.80;;;13.11;52.70;96726.00;4885247;29;20232;-52
2022/11/04 04:57:50;;;;;;;2.93;1.50;;;9.90;91.00;;;13.10;52.70;96730.50;4907492;29;20045;-53
2022/11/04 05:00:20;;;;;;;1.87;1.27;;;9.90;90.60;;;13.13;52.85;96726.63;4907302;29;20048;-51
2022/11/04 05:02:48;;;;;;;2.30;1.30;;;10.00;90.40;;;13.15;52.67;96714.72;4907162;29;20347;-51
2022/11/04 05:05:18;;;;;;;1.95;1.30;;;10.00;90.10;;;13.17;52.56;96688.63;4906642;29;20049;-47
2022/11/04 05:07:46;;;;;;;2.00;1.30;;;10.00;90.00;;;13.20;52.61;96688.22;4906405;29;20060;-50
2022/11/04 05:10:16;;;;;;;2.27;1.17;;;10.10;89.80;;;13.22;52.32;96685.31;4906680;29;20063;-49
2022/11/04 05:15:31;;;;;;;4.37;1.20;;;10.00;89.60;;;13.13;52.60;96660.66;4906388;29;20329;-49
2022/11/04 05:18:02;;;;;;;1.50;0.90;;;9.90;89.70;;;13.11;52.54;96648.53;4907091;29;20052;-51
2022/11/04 05:20:32;;;;;;;3.03;1.10;;;9.90;90.10;;;13.10;52.58;96641.53;4910659;29;20044;-51
2022/11/04 05:23:01;;;;;;;3.37;1.10;;;9.90;90.60;;;13.05;52.67;96647.47;4924962;29;20082;-48
2022/11/04 05:25:29;;;;;;;7.40;1.50;;;9.80;90.60;;;12.96;52.58;96652.16;4925358;29;20052;-51
2022/11/04 05:28:01;;;;;;;2.47;1.10;;;9.70;91.00;;;12.90;52.95;96644.13;4925661;29;20056;-51
2022/11/04 05:30:29;;;;;;;1.50;1.13;;;9.60;92.00;;;12.85;52.94;96638.56;4926016;29;20388;-49
2022/11/04 05:32:57;;;;;;;3.07;1.17;;;9.50;92.10;;;12.79;52.98;96645.53;4925657;29;20078;-53
2022/11/04 05:35:33;;;;;;;2.60;1.20;;;9.50;92.40;;;12.77;53.14;96647.56;4923967;29;20060;-50
2022/11/04 05:38:01;;;;;;;1.87;0.93;;;9.50;92.70;;;12.76;53.45;96656.63;4924995;29;20227;-54
2022/11/04 05:40:33;;;;;;;2.00;1.10;;;9.50;92.60;;;12.74;53.17;96677.38;4924810;29;20055;-50
2022/11/04 05:43:01;;;;;;;2.40;1.10;;;9.40;92.50;;;12.71;53.10;96688.44;4925595;29;20067;-51
2022/11/04 05:45:30;;;;;;;1.47;0.93;;;9.40;92.10;;;12.72;53.00;96693.56;4924852;29;20048;-52
2022/11/04 05:48:03;;;;;;;7.30;1.47;;;9.40;92.60;;;12.71;53.11;96689.25;4925768;29;20056;-48
2022/11/04 05:50:33;;;;;;;2.60;1.40;;;9.40;92.30;;;12.67;53.62;96688.00;4925492;29;20063;-50
2022/11/04 05:53:01;;;;;;;3.80;1.20;;;9.40;92.70;;;12.66;53.11;96686.38;4924580;29;20258;-53
2022/11/04 05:55:29;;;;;;;2.67;1.40;;;9.40;92.70;;;12.60;53.37;96684.47;4923942;29;20052;-53
2022/11/04 05:57:58;;;;;;;3.17;1.40;;;9.30;93.10;;;12.60;53.24;96690.66;4925616;29;20040;-51
2022/11/04 06:00:26;;;;;;;3.93;1.60;;;9.30;93.30;;;12.63;53.52;96694.75;4925792;29;20250;-50
2022/11/04 06:02:58;;;;;;;5.13;1.53;;;9.30;93.30;;;12.62;53.26;96701.13;4925636;29;20048;-53
2022/11/04 06:05:27;;;;;;;2.93;1.37;;;9.30;92.90;;;12.60;53.59;96690.66;4923821;29;20060;-52
2022/11/04 06:07:56;;;;;;;3.03;1.30;;;9.40;92.80;;;12.58;53.63;96687.34;4924799;29;20109;-51
2022/11/04 06:10:24;;;;;;;2.40;1.57;;;9.40;92.80;;;12.59;53.70;96685.50;4925436;29;20060;-47
2022/11/04 06:12:52;;;;;;;2.67;1.50;;;9.40;92.90;;;12.66;53.50;96685.50;4924281;29;20056;-51
2022/11/04 06:15:21;;;;;;;6.17;1.70;;;9.50;92.90;;;12.71;53.39;96678.56;4925051;29;20058;-53
2022/11/04 06:17:49;;;;;;;3.13;1.70;;;9.60;92.30;;;12.73;53.20;96683.72;4925254;29;20040;-52
2022/11/04 06:20:17;;;;;;;3.47;2.10;;;9.50;92.10;;;12.72;53.37;96671.41;4923061;29;20355;-53
2022/11/04 06:22:45;;;;;;;6.20;2.93;;;9.50;92.30;;;12.67;53.50;96679.97;4906425;29;20254;-49
2022/11/04 06:25:13;;;;;;;6.07;2.27;;;9.40;92.40;;;12.65;53.27;96687.38;4906130;29;20049;-49
2022/11/04 06:27:41;;;;;;;3.73;1.63;;;9.40;93.00;;;12.64;53.42;96692.91;4906288;29;20058;-51
2022/11/04 06:30:11;;;;;;;2.00;1.40;;;9.40;93.10;;;12.64;53.67;96701.75;4906667;29;20067;-51
2022/11/04 06:32:39;;;;;;;4.90;1.33;;;9.40;93.40;;;12.64;53.66;96701.75;4906781;29;20052;-49
2022/11/04 06:35:08;;;;;;;1.43;1.00;;;9.40;93.30;;;12.67;53.85;96705.88;4905189;29;20066;-48
2022/11/04 06:37:36;;;;;;;4.33;1.60;;;9.40;93.10;;;12.70;53.44;96708.16;4905560;29;20223;-48
2022/11/04 06:40:06;;;;;;;2.20;1.10;;;9.50;92.90;;;12.73;53.58;96715.75;4905667;29;20048;-51
2022/11/04 06:42:34;;;;;;;2.70;1.20;;;9.50;93.00;;;12.78;53.19;96714.16;4907174;29;20362;-52
2022/11/04 06:45:02;;;;;;;2.10;1.30;;;9.60;92.30;;;12.79;53.23;96709.63;4909392;29;20052;-54
2022/11/04 06:47:32;;;;;;;1.80;0.90;;;9.60;91.90;;;12.82;53.32;96714.56;4909683;29;20059;-52
2022/11/04 06:50:00;;;;;;;3.57;1.67;;;9.60;91.90;;;12.80;53.22;96722.78;4909123;29;20259;-53
2022/11/04 06:52:28;;;;;;;3.53;1.43;;;9.60;91.90;;;12.80;53.11;96729.97;4909743;29;20052;-47
2022/11/04 06:54:56;;;;;;;2.70;1.33;;;9.60;91.80;;;12.79;52.94;96729.16;4908892;29;20399;-50
2022/11/04 06:57:25;;;;;;;2.37;1.03;;;9.60;91.80;;;12.76;53.28;96732.22;4909576;29;20217;-52
2022/11/04 06:59:53;;;;;;;4.53;1.37;;;9.60;91.80;;;12.76;53.09;96726.06;4909323;29;20048;-52
2022/11/04 07:02:21;;;;;;;6.23;1.30;;;9.50;91.90;;;12.78;53.15;96734.69;4909434;29;20067;-51
2022/11/04 07:04:49;;;;;;;3.17;1.33;;;9.50;91.90;;;12.77;53.13;96733.03;4908744;29;20041;-51
2022/11/04 07:07:17;;;;;;;2.50;1.37;;;9.50;91.90;;;12.77;53.36;96736.53;4908735;29;20055;-51
2022/11/04 07:09:45;;;;;;;6.30;1.47;;;9.60;91.80;;;12.79;53.32;96729.16;4909285;29;20048;-51
2022/11/04 07:12:14;;;;;;;2.87;1.23;;;9.60;91.80;;;12.79;53.15;96726.50;4909112;29;20328;-50
2022/11/04 07:14:42;;;;;;;4.43;1.43;;;9.60;91.90;;;12.79;53.26;96729.16;4908882;29;20053;-52
2022/11/04 07:17:10;;;;;;;3.77;2.37;;;9.60;92.80;;;12.77;53.44;96720.50;4908809;29;20049;-53
2022/11/04 07:19:39;;;;;;;7.00;2.90;;;9.60;92.50;;;12.80;53.38;96722.78;4909280;29;20059;-51
2022/11/04 07:22:07;;;;;;;18.47;2.60;;;9.60;92.20;;;12.87;53.50;96713.97;4925622;29;20059;-53
2022/11/04 07:24:36;;;;;;;5.47;1.80;;;9.70;92.30;;;12.90;53.34;96716.25;4914047;29;20049;-48
2022/11/04 07:27:05;;;;;;;6.77;1.60;;;9.80;92.00;;;12.93;53.05;96718.53;4908960;29;20050;-51
2022/11/04 07:29:33;;;;;;;4.50;1.73;;;9.80;91.50;;;12.93;53.33;96703.34;4908970;29;20059;-53
2022/11/04 07:32:02;;;;;;;2.60;1.67;;;9.80;91.90;;;12.93;53.54;96698.00;4908783;29;20059;-50
2022/11/04 07:34:30;;;;;;;2.87;1.47;;;9.80;92.20;;;12.97;53.21;96698.44;4908437;29;20070;-50
2022/11/04 07:36:58;;;;;;;3.63;1.67;;;9.80;92.10;;;12.97;53.16;96690.41;4907645;29;20052;-51
2022/11/04 07:39:26;;;;;;;1.90;1.70;;;9.80;92.20;;;12.96;53.43;96686.88;4908572;29;20049;-51
2022/11/04 07:41:54;;;;;;;5.37;1.50;;;9.70;92.40;;;12.93;53.56;96691.81;4908273;29;20063;-50
2022/11/04 07:44:26;;;;;;;3.67;1.50;;;9.70;93.10;;;12.92;53.94;96692.84;4908284;29;20052;-51
2022/11/04 07:46:54;;;;;;;2.37;1.17;;;9.70;93.20;;;12.93;53.65;96689.13;4908265;29;20052;-52
2022/11/04 07:49:24;;;;;;;5.13;1.93;;;9.70;93.20;;;12.96;54.01;96688.75;4908593;29;20059;-51
2022/11/04 07:51:52;;;;;;;5.17;1.40;;;9.80;93.10;;;12.97;53.90;96685.88;4908698;29;20254;-51
2022/11/04 07:54:20;;;;;;;2.43;1.37;;;9.80;93.30;;;12.95;53.92;96681.75;4905838;29;20052;-51
2022/11/04 07:56:48;;;;;;;1.70;1.20;;;9.80;93.20;;;12.99;53.98;96677.69;4905369;29;20052;-49
2022/11/04 07:59:16;;;;;;;3.50;1.40;;;9.80;93.40;;;13.06;53.93;96691.03;4908132;29;20058;-49
2022/11/04 08:01:45;;;;;;;3.20;1.17;;;9.90;93.00;;;13.10;53.81;96695.78;4908258;29;20363;-48
2022/11/04 08:04:13;;;;;;;4.13;1.63;;;10.00;92.80;;;13.15;53.78;96682.66;4907645;29;20052;-49
2022/11/04 08:06:41;;;;;;;2.83;1.60;;;10.10;92.70;;;13.17;53.79;96688.63;4908018;29;20070;-52
2022/11/04 08:09:10;;;;;;;2.30;1.30;;;10.10;92.30;;;13.24;53.72;96683.31;4906824;29;20052;-51
2022/11/04 08:11:38;;;;;;;2.73;1.20;;;10.20;92.10;;;13.24;53.48;96675.28;4908338;29;20052;-52
2022/11/04 08:14:07;;;;;;;2.93;1.23;;;10.20;91.90;;;13.26;53.55;96675.06;4907541;29;20330;-52
2022/11/04 08:16:36;;;;;;;2.70;1.67;;;10.10;92.00;;;13.29;53.58;96667.47;4908226;29;20055;-51
2022/11/04 08:19:04;;;;;;;2.73;1.67;;;10.20;92.20;;;13.31;53.49;96672.66;4906762;29;20048;-47
2022/11/04 08:21:33;;;;;;;2.00;1.20;;;10.20;92.30;;;13.36;53.46;96667.53;4908040;29;20032;-51
2022/11/04 08:24:04;;;;;;;1.97;1.33;;;10.20;92.10;;;13.37;53.61;96666.50;4907087;29;20071;-51
2022/11/04 08:26:33;;;;;;;3.23;1.40;;;10.30;92.00;;;13.42;53.48;96665.91;4907903;29;20052;-49
2022/11/04 08:29:06;;;;;;;3.77;1.30;;;10.30;91.90;;;13.43;53.31;96662.19;4907909;29;20368;-54
2022/11/04 08:31:35;;;;;;;3.10;1.42;;;10.30;91.50;;;13.45;53.36;96660.13;4907807;29;20201;-48
2022/11/04 08:34:04;;;;;;;5.37;1.67;;;10.40;91.70;;;13.51;53.25;96665.50;4907428;29;20059;-49
2022/11/04 08:36:35;;;;;;;4.70;2.07;;;10.40;91.30;;;13.57;53.26;96666.50;4907600;29;20059;-53
2022/11/04 08:39:04;;;;;;;2.37;1.53;;;10.50;91.50;;;13.61;53.33;96669.59;4907627;29;20054;-49
2022/11/04 08:41:41;;;;;;;1.50;1.20;;;10.50;90.90;;;13.67;53.05;96666.94;4891771;29;20059;-51
2022/11/04 08:44:13;;;;;;;6.17;1.93;;;10.60;90.90;;;13.66;53.05;96669.81;4906969;29;20057;-49
2022/11/04 08:46:43;;;;;;;2.90;1.30;;;10.60;89.90;;;13.63;52.93;96670.22;4907486;29;20055;-51
2022/11/04 08:49:12;;;;;;;4.00;1.93;;;10.50;90.70;;;13.71;53.02;96672.72;4907554;29;20235;-48
2022/11/04 08:51:56;;;;;;;1.30;1.10;;;10.60;90.80;;;13.76;52.80;96684.47;4891985;29;20351;-49
2022/11/04 08:54:26;;;;;;;1.87;1.37;;;10.70;90.90;;;13.78;52.96;96685.06;4891761;29;20052;-52
2022/11/04 08:56:55;;;;;;;4.38;2.03;;;10.70;89.20;;;13.79;52.94;96683.22;4907045;29;20048;-52
2022/11/04 08:59:23;;;;;;;3.47;1.33;;;10.80;89.50;;;13.83;52.85;96691.66;4907336;29;20051;-51
2022/11/04 09:01:52;;;;;;;2.73;1.33;;;10.90;89.20;;;13.85;52.87;96689.59;4907128;29;20049;-50
2022/11/04 09:04:20;;;;;;;4.43;1.40;;;10.90;88.80;;;13.85;52.73;96697.63;4906852;29;20047;-52
2022/11/04 09:06:49;;;;;;;4.17;1.30;;;10.90;88.60;;;13.92;52.79;96701.09;4906991;29;20350;-53
2022/11/04 09:09:18;;;;;;;2.75;1.40;;;11.00;88.40;;;13.97;52.57;96701.31;4906151;29;20058;-54
2022/11/04 09:11:47;;;;;;;4.00;1.97;;;11.00;87.90;;;13.99;52.63;96701.94;4906837;29;20052;-51
2022/11/04 09:14:16;;;;;;;4.75;2.30;;;11.00;88.10;;;14.02;52.58;96706.06;4906825;29;20325;-53
2022/11/04 09:16:44;;;;;;;3.13;1.35;;;11.00;88.40;;;14.08;52.86;96705.25;4906993;29;20059;-52
2022/11/04 09:19:12;;;;;;;3.90;1.43;;;11.10;88.70;;;14.11;52.53;96715.53;4907031;29;20046;-53
2022/11/04 09:21:40;;;;;;;3.60;1.27;;;11.10;88.00;;;14.13;52.41;96719.66;4903210;29;20054;-53
2022/11/04 09:24:10;;;;;;;7.03;2.05;;;11.10;88.20;;;14.15;52.61;96725.63;4925504;29;20062;-50
2022/11/04 09:26:38;;;;;;;2.20;1.17;;;11.20;88.10;;;14.24;52.52;96722.75;4925771;29;20056;-52
2022/11/04 09:29:08;;;;;;;4.80;1.33;;;11.20;88.30;;;14.24;52.12;96718.19;4925948;29;20224;-52
2022/11/04 09:31:37;;;;;;;4.45;1.30;;;11.20;87.30;;;14.26;52.04;96716.13;4925921;29;20052;-49
2022/11/04 09:34:06;;;;;;;3.70;1.30;;;11.30;86.60;;;14.27;51.84;96724.97;4924958;29;20055;-50
2022/11/04 09:36:34;;;;;;;1.77;0.90;;;11.30;86.20;;;14.29;51.68;96729.13;4925674;29;20060;-47
2022/11/04 09:39:03;;;;;;;6.03;1.23;;;11.40;84.90;;;14.32;51.71;96723.34;4925385;29;20050;-52
2022/11/04 09:41:52;;;;;;;1.95;1.10;;;11.40;85.50;;;14.41;51.80;96729.31;4925468;29;20048;-52
2022/11/04 09:44:47;;;;;;;2.67;1.27;;;11.50;84.90;;;14.43;51.50;96727.25;4924995;29;20055;-51
2022/11/04 09:47:36;;;;;;;2.42;1.08;;;11.50;84.30;;;14.48;51.25;96723.94;4925683;29;20250;-50
2022/11/04 09:50:10;;;;;;;2.20;0.93;;;11.60;84.10;;;14.50;51.28;96719.19;4925518;29;20346;-49
2022/11/04 09:52:44;;;;;;;2.60;1.10;;;11.60;84.10;;;14.55;51.16;96719.41;4924586;29;20357;-51
2022/11/04 09:55:40;;;;;;;4.33;1.70;;;11.60;83.60;;;14.57;51.09;96720.03;4925564;29;20067;-51
2022/11/04 09:58:13;;;;;;;2.10;1.35;;;11.70;83.10;;;14.61;50.83;96715.09;4924471;29;20048;-52
2022/11/04 10:00:48;;;;;;;1.23;1.10;;;11.60;83.30;;;14.66;51.03;96716.13;4925444;29;20054;-52
2022/11/04 10:04:07;;;;;;;5.10;1.70;;;11.70;82.40;;;14.70;51.09;96709.31;4924442;29;20184;-52
2022/11/04 10:07:21;;;;;;;3.80;1.75;;;11.80;82.40;;;14.85;51.18;96705.53;4925654;29;20058;-48
2022/11/04 10:10:12;;;;;;;7.47;1.65;;;11.90;82.80;;;14.87;50.61;96703.47;4923998;29;20056;-51
2022/11/04 10:13:30;;;;;;;1.88;1.20;;;11.80;81.70;;;14.90;49.96;96701.19;4925542;29;20056;-54
2022/11/04 10:16:57;;;;;;;3.08;1.27;;;11.90;79.60;;;14.88;50.53;96700.59;4924495;29;20147;-50
2022/11/04 10:19:34;;;;;;;3.00;1.38;;;12.00;80.40;;;14.98;50.19;96693.97;4926240;29;20067;-50
2022/11/04 10:22:56;;;;;;;5.07;1.77;;;12.00;81.00;;;15.03;49.97;96686.13;4913362;29;20125;-50
2022/11/04 10:25:48;;;;;;;6.68;1.40;;;12.20;77.90;;;15.13;49.47;96697.19;4895657;29;20396;-52
2022/11/04 10:28:21;;;;;;;8.48;2.05;;;12.20;77.40;;;15.14;49.33;96693.47;4910113;29;20053;-49
2022/11/04 10:30:51;;;;;;;3.92;1.13;;;12.10;78.90;;;15.19;49.49;96699.03;4909993;29;20052;-53
2022/11/04 10:33:36;;;;;;;5.25;2.40;;;12.20;79.30;;;15.07;48.51;96690.03;4893639;29;20062;-48
2022/11/04 10:36:09;;;;;;;3.60;1.17;;;12.20;75.70;;;15.18;48.66;96692.03;4877825;29;20079;-50
2022/11/04 10:38:51;;;;;;;6.95;2.63;;;12.10;77.80;;;15.17;48.90;96693.06;4893279;29;20351;-53
2022/11/04 10:41:36;;;;;;;4.32;2.28;;;12.10;77.60;;;15.19;48.49;96688.31;4909664;29;20072;-48
2022/11/04 10:44:34;;;;;;;4.15;1.52;;;12.10;77.10;;;15.25;48.50;96695.47;4909420;29;20052;-50
2022/11/04 10:47:27;;;;;;;4.10;1.50;;;12.20;75.80;;;15.25;48.40;96686.63;4909396;29;20059;-52
2022/11/04 10:50:54;;;;;;;3.65;1.50;;;12.20;75.60;;;15.31;48.89;96696.50;4909775;29;20044;-49
2022/11/04 10:53:27;;;;;;;2.22;1.10;;;12.20;76.30;;;15.39;48.38;96687.38;4882190;29;20048;-49
2022/11/04 10:56:38;;;;;;;6.10;2.05;;;12.30;76.70;;;15.34;48.21;96685.34;4890360;29;20211;-51
2022/11/04 10:59:27;;;;;;;4.50;1.65;;;12.30;74.40;;;15.36;48.07;96689.44;4909279;29;20064;-50
2022/11/04 11:01:59;;;;;;;4.35;1.52;;;12.20;75.10;;;15.35;47.83;96679.78;4893250;29;20056;-53
2022/11/04 11:04:34;;;;;;;4.78;1.35;;;12.30;75.40;;;15.41;47.80;96680.78;4892918;29;20048;-52
2022/11/04 11:07:10;;;;;;;4.50;1.20;;;12.30;74.10;;;15.39;48.00;96684.69;4909183;29;20053;-51
2022/11/04 11:09:41;;;;;;;3.33;1.50;;;12.30;75.50;;;15.40;48.11;96676.44;4892975;29;20052;-51
2022/11/04 11:12:12;;;;;;;5.57;1.67;;;12.30;75.30;;;15.41;47.83;96674.56;4909124;29;20056;-48
2022/11/04 11:15:25;;;;;;;3.92;1.50;;;12.30;75.10;;;15.44;47.87;96674.97;4908862;29;20234;-49
2022/11/04 11:18:00;;;;;;;5.43;1.85;;;12.40;74.70;;;15.51;47.93;96670.38;4893414;29;20060;-52
2022/11/04 11:20:31;;;;;;;2.28;1.27;;;12.50;75.20;;;15.60;47.73;96667.44;4912382;29;20058;-48
2022/11/04 11:23:00;;;;;;;5.13;1.55;;;12.50;75.10;;;15.56;47.56;96667.03;4927666;29;20060;-52
2022/11/04 11:25:34;;;;;;;5.18;1.60;;;12.50;74.70;;;15.56;47.71;96667.84;4927587;29;20044;-50
2022/11/04 11:28:08;;;;;;;2.75;1.10;;;12.60;74.80;;;15.59;47.51;96665.81;4926297;29;20048;-52
2022/11/04 11:31:07;;;;;;;2.83;1.25;;;12.60;74.10;;;15.63;47.46;96654.41;4926876;29;20048;-51